createdAt,value
2023-03-23T00:02:49.813Z,13.5
2023-03-23T00:07:55.773Z,13.6
2023-03-23T00:13:01.931Z,13.5
2023-03-23T00:18:07.921Z,13.8
2023-03-23T00:23:13.971Z,13.6
2023-03-23T00:28:20.213Z,13.3
2023-03-23T00:33:26.164Z,13.1
2023-03-23T00:38:32.355Z,12.9
2023-03-23T00:43:37.482Z,12.9
2023-03-23T00:48:43.565Z,13
2023-03-23T00:53:49.559Z,13.4
2023-03-23T00:58:55.652Z,13.5
2023-03-23T01:04:01.828Z,13.7
2023-03-23T01:09:07.890Z,13.6
2023-03-23T01:14:14.031Z,13.8
2023-03-23T01:19:20.021Z,13.9
2023-03-23T01:24:26.197Z,13.8
2023-03-23T01:29:32.351Z,13.8
2023-03-23T01:34:38.359Z,13.7
2023-03-23T01:39:44.549Z,13.6
2023-03-23T01:44:50.658Z,13.6
2023-03-23T01:49:55.781Z,13.5
2023-03-23T01:55:01.924Z,13.4
2023-03-23T02:00:07.978Z,13.4
2023-03-23T02:05:13.976Z,13.4
2023-03-23T02:10:20.006Z,13.7
2023-03-23T02:15:26.332Z,13.9
2023-03-23T02:20:32.359Z,13.9
2023-03-23T02:25:38.536Z,13.9
2023-03-23T02:30:44.422Z,13.9
2023-03-23T02:35:50.487Z,14
2023-03-23T02:40:56.653Z,14.3
2023-03-23T02:46:02.688Z,14.5
2023-03-23T02:51:08.881Z,14.5
2023-03-23T02:56:13.987Z,14.7
2023-03-23T03:01:19.990Z,14.6
2023-03-23T03:06:26.232Z,14.5
2023-03-23T03:11:32.395Z,14.4
2023-03-23T03:16:38.364Z,14.4
2023-03-23T03:21:44.471Z,14.2
2023-03-23T03:26:50.464Z,14.1
2023-03-23T03:31:56.664Z,14.2
2023-03-23T03:37:02.657Z,14
2023-03-23T03:42:08.892Z,13.9
2023-03-23T03:47:14.912Z,14
2023-03-23T03:52:20.995Z,14
2023-03-23T03:57:27.134Z,13.9
2023-03-23T04:02:32.266Z,13.9
2023-03-23T04:07:38.251Z,13.9
2023-03-23T04:12:44.540Z,13.9
2023-03-23T04:17:50.563Z,13.9
2023-03-23T04:22:56.615Z,13.9
2023-03-23T04:28:02.773Z,14
2023-03-23T04:33:08.728Z,14.1
2023-03-23T04:38:14.867Z,14.1
2023-03-23T04:43:20.934Z,13.9
2023-03-23T04:48:27.024Z,13.9
2023-03-23T04:53:33.191Z,13.8
2023-03-23T04:58:39.222Z,13.7
2023-03-23T05:03:45.318Z,13.6
2023-03-23T05:08:50.422Z,13.5
2023-03-23T05:13:56.529Z,13.5
2023-03-23T05:19:02.601Z,13.4
2023-03-23T05:24:08.873Z,13.4
2023-03-23T05:29:14.990Z,13.3
2023-03-23T05:34:20.904Z,13.2
2023-03-23T05:39:27.096Z,13.1
2023-03-23T05:44:33.323Z,13
2023-03-23T05:49:39.173Z,12.9
2023-03-23T05:54:45.457Z,12.9
2023-03-23T05:59:51.515Z,12.8
2023-03-23T06:04:57.485Z,12.8
2023-03-23T06:10:03.707Z,12.9
2023-03-23T06:15:08.866Z,12.9
2023-03-23T06:20:14.774Z,12.7
2023-03-23T06:25:21.042Z,12.7
2023-03-23T06:30:27.115Z,12.7
2023-03-23T06:35:33.143Z,12.8
2023-03-23T06:40:39.267Z,13
2023-03-23T06:45:45.413Z,13
2023-03-23T06:50:51.516Z,12.9
2023-03-23T06:55:57.467Z,12.9
2023-03-23T07:01:03.626Z,12.9
2023-03-23T07:06:09.822Z,12.9
2023-03-23T07:11:15.967Z,12.9
2023-03-23T07:16:21.925Z,12.9
2023-03-23T07:21:27.034Z,12.9
2023-03-23T07:26:33.023Z,13
2023-03-23T07:31:39.258Z,13
2023-03-23T07:36:45.394Z,13
2023-03-23T07:41:51.456Z,13
2023-03-23T07:46:57.421Z,13.2
2023-03-23T07:52:03.670Z,13.4
2023-03-23T07:57:09.587Z,13.4
2023-03-23T08:02:15.688Z,13.4
2023-03-23T08:07:21.945Z,13.4
2023-03-23T08:12:27.876Z,13.4
2023-03-23T08:17:34.043Z,13.6
2023-03-23T08:22:40.166Z,13.9
2023-03-23T08:27:45.187Z,14.4
2023-03-23T08:32:51.451Z,14.6
2023-03-23T08:37:57.407Z,14.6
2023-03-23T08:43:03.501Z,14.9
2023-03-23T08:48:09.605Z,14.9
2023-03-23T08:53:15.721Z,14.9
2023-03-23T08:58:21.821Z,15.2
2023-03-23T09:03:27.886Z,15.5
2023-03-23T09:08:33.950Z,15.9
2023-03-23T09:13:40.207Z,15.5
2023-03-23T09:18:46.121Z,15.8
2023-03-23T09:23:52.374Z,16
2023-03-23T09:28:58.353Z,16.1
2023-03-23T09:34:03.475Z,16.1
2023-03-23T09:39:09.534Z,16.2
2023-03-23T09:44:15.614Z,16.5
2023-03-23T09:49:21.853Z,16.6
2023-03-23T09:54:27.975Z,16.6
2023-03-23T09:59:33.892Z,16.6
2023-03-23T10:04:40.166Z,16.7
2023-03-23T10:09:46.267Z,16.5
2023-03-23T10:14:52.351Z,16.5
2023-03-23T10:19:58.425Z,16.7
2023-03-23T10:25:04.468Z,16.7
2023-03-23T10:30:10.476Z,16.6
2023-03-23T10:35:16.630Z,16.7
2023-03-23T10:40:21.873Z,16.8
2023-03-23T10:45:27.766Z,16.8
2023-03-23T10:50:33.933Z,17
2023-03-23T10:55:40.012Z,16.9
2023-03-23T11:00:46.042Z,16.8
2023-03-23T11:05:52.145Z,16.9
2023-03-23T11:10:58.220Z,16.7
2023-03-23T11:16:04.310Z,16.4
2023-03-23T11:21:10.480Z,16.4
2023-03-23T11:26:16.654Z,16.2
2023-03-23T11:31:22.615Z,16.2
2023-03-23T11:36:28.755Z,16.1
2023-03-23T11:41:34.814Z,16.1
2023-03-23T11:46:39.969Z,16.1
2023-03-23T11:51:46.163Z,16.2
2023-03-23T11:56:52.191Z,16.3
2023-03-23T12:01:58.386Z,16.5
2023-03-23T12:07:04.456Z,16.7
2023-03-23T12:12:10.530Z,16.7
2023-03-23T12:17:16.684Z,16.9
2023-03-23T12:22:22.740Z,16.9
2023-03-23T12:27:28.798Z,17.1
2023-03-23T12:32:34.738Z,17.6
2023-03-23T12:37:41.009Z,17.7
2023-03-23T12:42:47.009Z,17.5
2023-03-23T12:47:53.028Z,17.4
2023-03-23T12:52:58.114Z,17.1
2023-03-23T12:58:04.233Z,17.9
2023-03-23T13:03:10.320Z,18
2023-03-23T13:08:16.414Z,17.3
2023-03-23T13:13:22.744Z,16.5
2023-03-23T13:18:28.587Z,16.4
2023-03-23T13:23:34.701Z,16.5
2023-03-23T13:28:40.795Z,16.2
2023-03-23T13:33:47.038Z,16.2
2023-03-23T13:38:53.138Z,16.4
2023-03-23T13:43:59.254Z,16.6
2023-03-23T13:49:05.294Z,16.7
2023-03-23T13:54:11.260Z,16.5
2023-03-23T13:59:16.486Z,16.2
2023-03-23T14:04:22.572Z,16.3
2023-03-23T14:09:28.580Z,16.9
2023-03-23T14:14:34.636Z,17
2023-03-23T14:19:40.730Z,16.2
2023-03-23T14:24:46.819Z,16
2023-03-23T14:29:52.081Z,15.9
2023-03-23T14:34:58.233Z,15.9
2023-03-23T14:40:04.169Z,15.9
2023-03-23T14:45:10.217Z,15.7
2023-03-23T14:50:16.313Z,15.6
2023-03-23T14:55:22.508Z,15.6
2023-03-23T15:00:28.498Z,15.7
2023-03-23T15:05:34.578Z,15.8
2023-03-23T15:10:40.786Z,15.9
2023-03-23T15:15:46.784Z,16
2023-03-23T15:20:53.011Z,16
2023-03-23T15:25:59.074Z,15.9
2023-03-23T15:31:05.175Z,16
2023-03-23T15:36:10.164Z,16.1
2023-03-23T15:41:16.316Z,16.1
2023-03-23T15:46:22.360Z,16.1
2023-03-23T15:51:28.618Z,16.1
2023-03-23T15:56:34.697Z,16.3
2023-03-23T16:01:40.777Z,16.2
2023-03-23T16:06:46.903Z,16
2023-03-23T16:11:53.074Z,15.9
2023-03-23T16:16:59.065Z,15.9
2023-03-23T16:22:05.172Z,15.9
2023-03-23T16:27:11.233Z,15.8
2023-03-23T16:32:17.394Z,15.8
2023-03-23T16:37:23.310Z,15.7
2023-03-23T16:42:28.448Z,15.6
2023-03-23T16:47:34.517Z,15.7
2023-03-23T16:52:40.588Z,15.6
2023-03-23T16:57:46.863Z,15.5
2023-03-23T17:02:52.931Z,15.3
2023-03-23T17:07:59.052Z,15.2
2023-03-23T17:13:04.989Z,14.9
2023-03-23T17:18:11.083Z,14.8
2023-03-23T17:23:17.370Z,14.6
2023-03-23T17:28:23.438Z,14.6
2023-03-23T17:33:29.346Z,14.5
2023-03-23T17:38:35.494Z,14.4
2023-03-23T17:43:41.659Z,14.4
2023-03-23T17:48:46.659Z,14.4
2023-03-23T17:53:52.907Z,14.3
2023-03-23T17:58:58.850Z,14.2
2023-03-23T18:04:05.072Z,14.3
2023-03-23T18:09:11.243Z,14.2
2023-03-23T18:14:17.250Z,14.2
2023-03-23T18:19:23.398Z,14.2
2023-03-23T18:24:29.441Z,14.2
2023-03-23T18:29:35.597Z,14.2
2023-03-23T18:34:41.533Z,14.2
2023-03-23T18:39:47.820Z,14.2
2023-03-23T18:44:53.897Z,14.1
2023-03-23T18:49:59.929Z,13.9
2023-03-23T18:55:05.110Z,13.9
2023-03-23T19:00:11.207Z,13.8
2023-03-23T19:05:17.252Z,13.6
2023-03-23T19:10:23.437Z,13.5
2023-03-23T19:15:29.453Z,13.4
2023-03-23T19:20:35.423Z,13.3
2023-03-23T19:25:41.732Z,13.2
2023-03-23T19:30:47.766Z,13.1
2023-03-23T19:35:53.795Z,13.1
2023-03-23T19:40:59.792Z,13
2023-03-23T19:46:06.061Z,12.9
2023-03-23T19:51:12.182Z,12.9
2023-03-23T19:56:18.254Z,13
2023-03-23T20:01:23.266Z,12.9
2023-03-23T20:06:29.469Z,12.9
2023-03-23T20:11:35.563Z,12.9
2023-03-23T20:16:41.663Z,12.8
2023-03-23T20:21:47.728Z,12.6
2023-03-23T20:26:53.682Z,12.5
2023-03-23T20:31:59.897Z,12.6
2023-03-23T20:37:06.034Z,12.5
2023-03-23T20:42:12.107Z,12.5
2023-03-23T20:47:18.058Z,12.4
2023-03-23T20:52:24.590Z,12.6
2023-03-23T20:57:30.403Z,12.6
2023-03-23T21:02:36.602Z,12.4
2023-03-23T21:07:41.488Z,12.4
2023-03-23T21:12:47.705Z,12.3
2023-03-23T21:17:53.797Z,12.4
2023-03-23T21:22:59.780Z,12.4
2023-03-23T21:28:05.988Z,12.3
2023-03-23T21:33:12.042Z,12.2
2023-03-23T21:38:18.179Z,12.1
2023-03-23T21:43:24.253Z,12.1
2023-03-23T21:48:30.328Z,12
2023-03-23T21:53:36.361Z,11.9
2023-03-23T21:58:42.487Z,11.8
2023-03-23T22:03:48.497Z,11.8
2023-03-23T22:08:54.583Z,11.6
2023-03-23T22:13:59.713Z,11.5
2023-03-23T22:19:05.799Z,11.4
2023-03-23T22:24:11.891Z,11.4
2023-03-23T22:29:17.989Z,11.5
2023-03-23T22:34:24.256Z,11.5
2023-03-23T22:39:30.354Z,11.5
2023-03-23T22:44:36.440Z,11.7
2023-03-23T22:49:42.513Z,12
2023-03-23T22:54:48.607Z,12.3
2023-03-23T22:59:54.579Z,12.2
2023-03-23T23:05:00.687Z,12.2
2023-03-23T23:10:06.745Z,12.3
2023-03-23T23:15:12.983Z,12.4
2023-03-23T23:20:18.007Z,12.4
2023-03-23T23:25:24.087Z,12.5
2023-03-23T23:30:30.199Z,12.4
2023-03-23T23:35:36.259Z,12.1
2023-03-23T23:40:42.469Z,12
2023-03-23T23:45:48.451Z,11.8
2023-03-23T23:50:54.627Z,11.8
2023-03-23T23:56:00.766Z,11.8
